createdAt,value
2023-02-12T00:00:53.296Z,1.11
2023-02-12T00:03:25.332Z,1.21
2023-02-12T00:06:01.479Z,1.19
2023-02-12T00:08:33.615Z,1.30
2023-02-12T00:11:19.357Z,1.27
2023-02-12T00:13:51.793Z,1.43
2023-02-12T00:16:29.321Z,1.18
2023-02-12T00:19:01.513Z,1.38
2023-02-12T00:21:36.489Z,1.13
2023-02-12T00:24:08.626Z,1.28
2023-02-12T00:26:40.735Z,0.88
2023-02-12T00:29:13.037Z,0.77
2023-02-12T00:31:45.055Z,1.04
2023-02-12T00:34:17.102Z,0.78
2023-02-12T00:36:49.061Z,1.00
2023-02-12T00:39:21.079Z,0.89
2023-02-12T00:41:53.174Z,0.76
2023-02-12T00:44:25.151Z,0.67
2023-02-12T00:46:57.597Z,0.36
2023-02-12T00:49:34.502Z,0.25
2023-02-12T00:52:06.753Z,0.35
2023-02-12T00:54:38.969Z,0.61
2023-02-12T00:57:10.970Z,0.51
2023-02-12T00:59:43.220Z,0.59
2023-02-12T01:02:15.168Z,0.33
2023-02-12T01:04:47.259Z,0.67
2023-02-12T01:07:19.225Z,0.56
2023-02-12T01:09:51.283Z,0.57
2023-02-12T01:12:23.220Z,0.21
2023-02-12T01:14:55.105Z,0.36
2023-02-12T01:17:26.967Z,0.49
2023-02-12T01:20:00.429Z,0.39
2023-02-12T01:22:32.517Z,0.47
2023-02-12T01:25:08.109Z,0.40
2023-02-12T01:27:40.178Z,0.34
2023-02-12T01:30:13.952Z,0.33
2023-02-12T01:32:45.906Z,0.12
2023-02-12T01:35:17.989Z,0.37
2023-02-12T01:37:49.909Z,0.31
2023-02-12T01:40:21.819Z,-0.12
2023-02-12T01:42:53.784Z,0.18
2023-02-12T01:45:28.521Z,0.46
2023-02-12T01:48:01.360Z,0.40
2023-02-12T01:50:33.408Z,0.12
2023-02-12T01:53:05.845Z,0.36
2023-02-12T01:55:37.830Z,0.25
2023-02-12T01:58:10.429Z,0.20
2023-02-12T02:00:42.589Z,0.30
2023-02-12T02:03:14.853Z,0.26
2023-02-12T02:06:12.782Z,0.15
2023-02-12T02:08:44.766Z,-0.24
2023-02-12T02:11:35.346Z,-0.22
2023-02-12T02:14:26.096Z,0.19
2023-02-12T02:17:04.715Z,0.36
2023-02-12T02:20:14.505Z,0.31
2023-02-12T02:23:11.023Z,0.35
2023-02-12T02:25:48.984Z,0.47
2023-02-12T02:28:41.653Z,0.40
2023-02-12T02:31:40.208Z,0.12
2023-02-12T02:34:23.908Z,0.34
2023-02-12T02:37:18.062Z,0.36
2023-02-12T02:40:11.248Z,0.25
2023-02-12T02:43:06.755Z,0.37
2023-02-12T02:45:46.220Z,0.38
2023-02-12T02:48:34.158Z,0.23
2023-02-12T02:51:15.226Z,0.22
2023-02-12T02:53:57.869Z,0.26
2023-02-12T02:56:31.351Z,0.31
2023-02-12T02:59:11.259Z,0.24
2023-02-12T03:01:57.360Z,0.33
2023-02-12T03:04:37.186Z,0.40
2023-02-12T03:07:27.629Z,0.25
2023-02-12T03:10:04.494Z,0.24
2023-02-12T03:13:02.657Z,0.35
2023-02-12T03:15:41.590Z,0.41
2023-02-12T03:18:27.320Z,0.32
2023-02-12T03:21:03.933Z,0.26
2023-02-12T03:23:55.761Z,0.27
2023-02-12T03:26:47.211Z,0.25
2023-02-12T03:29:19.178Z,0.14
2023-02-12T03:32:15.901Z,0.09
2023-02-12T03:35:25.573Z,0.29
2023-02-12T03:38:05.059Z,0.19
2023-02-12T03:40:45.324Z,0.25
2023-02-12T03:43:44.362Z,0.21
2023-02-12T03:46:34.581Z,0.25
2023-02-12T03:49:35.570Z,0.26
2023-02-12T03:52:07.540Z,0.25
2023-02-12T03:54:39.590Z,0.21
2023-02-12T03:57:17.834Z,0.06
2023-02-12T03:59:50.645Z,0.30
2023-02-12T04:02:22.649Z,0.01
2023-02-12T04:04:54.560Z,0.14
2023-02-12T04:07:26.571Z,0.12
2023-02-12T04:09:58.697Z,0.27
2023-02-12T04:12:40.948Z,0.34
2023-02-12T04:15:49.953Z,0.36
2023-02-12T04:18:32.502Z,0.23
2023-02-12T04:21:29.530Z,0.35
2023-02-12T04:24:20.390Z,0.39
2023-02-12T04:26:55.495Z,0.39
2023-02-12T04:29:48.733Z,0.45
2023-02-12T04:32:39.561Z,0.50
2023-02-12T04:35:11.244Z,0.47
2023-02-12T04:37:50.580Z,0.29
2023-02-12T04:40:23.433Z,0.00
2023-02-12T04:42:55.442Z,0.03
2023-02-12T04:45:29.988Z,0.36
2023-02-12T04:48:02.505Z,0.29
2023-02-12T04:50:43.388Z,0.17
2023-02-12T04:53:15.337Z,-0.03
2023-02-12T04:55:48.046Z,0.13
2023-02-12T04:58:20.264Z,0.01
2023-02-12T05:00:52.277Z,0.17
2023-02-12T05:03:24.281Z,-0.08
2023-02-12T05:05:56.565Z,0.01
2023-02-12T05:08:28.734Z,0.01
2023-02-12T05:11:06.703Z,-0.05
2023-02-12T05:13:39.194Z,0.06
2023-02-12T05:16:11.151Z,-0.06
2023-02-12T05:18:43.403Z,-0.04
2023-02-12T05:21:15.627Z,-0.11
2023-02-12T05:23:47.588Z,-0.04
2023-02-12T05:26:22.429Z,0.04
2023-02-12T05:28:54.406Z,0.03
2023-02-12T05:31:26.638Z,-0.25
2023-02-12T05:33:58.716Z,-0.28
2023-02-12T05:36:30.741Z,-0.05
2023-02-12T05:39:02.790Z,-0.07
2023-02-12T05:41:35.909Z,-0.50
2023-02-12T05:44:07.919Z,-0.35
2023-02-12T05:46:40.003Z,-0.29
2023-02-12T05:49:12.081Z,-0.11
2023-02-12T05:51:43.999Z,-0.35
2023-02-12T05:54:16.068Z,-0.11
2023-02-12T05:56:48.300Z,0.03
2023-02-12T05:59:23.113Z,-0.13
2023-02-12T06:01:55.439Z,-0.08
2023-02-12T06:04:29.305Z,-0.29
2023-02-12T06:07:01.563Z,0.01
2023-02-12T06:09:35.303Z,-0.42
2023-02-12T06:12:07.336Z,-0.03
2023-02-12T06:14:41.322Z,-0.13
2023-02-12T06:17:13.376Z,-0.31
2023-02-12T06:19:45.381Z,-0.25
2023-02-12T06:22:17.401Z,-0.31
2023-02-12T06:24:49.334Z,0.05
2023-02-12T06:27:21.341Z,0.12
2023-02-12T06:29:53.272Z,-0.24
2023-02-12T06:32:25.605Z,-0.03
2023-02-12T06:34:57.596Z,-0.15
2023-02-12T06:37:29.770Z,0.12
2023-02-12T06:40:01.730Z,-0.02
2023-02-12T06:42:33.769Z,-0.15
2023-02-12T06:45:05.918Z,-0.09
2023-02-12T06:47:37.819Z,-0.05
2023-02-12T06:50:10.078Z,0.32
2023-02-12T06:52:42.033Z,0.15
2023-02-12T06:55:14.126Z,-0.01
2023-02-12T06:57:46.047Z,0.18
2023-02-12T07:00:18.874Z,0.22
2023-02-12T07:02:58.208Z,0.37
2023-02-12T07:05:30.227Z,0.38
2023-02-12T07:08:02.242Z,0.26
2023-02-12T07:10:34.206Z,0.18
2023-02-12T07:13:06.174Z,0.47
2023-02-12T07:15:40.835Z,0.50
2023-02-12T07:18:12.928Z,0.39
2023-02-12T07:20:44.892Z,0.21
2023-02-12T07:23:16.798Z,0.66
2023-02-12T07:25:59.952Z,0.49
2023-02-12T07:28:35.516Z,0.30
2023-02-12T07:31:16.177Z,0.63
2023-02-12T07:33:48.882Z,0.63
2023-02-12T07:36:21.560Z,0.63
2023-02-12T07:38:54.976Z,0.49
2023-02-12T07:41:29.769Z,0.56
2023-02-12T07:44:11.603Z,0.55
2023-02-12T07:46:48.467Z,0.63
2023-02-12T07:49:22.738Z,0.61
2023-02-12T07:51:57.185Z,0.47
2023-02-12T07:54:29.119Z,0.67
2023-02-12T07:57:01.123Z,0.71
2023-02-12T07:59:33.271Z,0.79
2023-02-12T08:02:05.296Z,0.33
2023-02-12T08:04:37.315Z,0.75
2023-02-12T08:07:09.290Z,0.87
2023-02-12T08:09:41.320Z,1.04
2023-02-12T08:12:13.212Z,0.73
2023-02-12T08:14:45.485Z,0.94
2023-02-12T08:17:17.512Z,0.94
2023-02-12T08:19:49.469Z,1.18
2023-02-12T08:22:21.400Z,1.04
2023-02-12T08:24:53.373Z,0.91
2023-02-12T08:27:25.312Z,0.64
2023-02-12T08:29:57.268Z,0.69
2023-02-12T08:32:29.765Z,0.85
2023-02-12T08:35:01.871Z,1.00
2023-02-12T08:37:33.806Z,0.77
2023-02-12T08:40:06.294Z,1.17
2023-02-12T08:42:38.278Z,1.17
2023-02-12T08:45:10.453Z,1.56
2023-02-12T08:47:42.417Z,1.45
2023-02-12T08:50:14.525Z,1.34
2023-02-12T08:52:46.754Z,1.40
2023-02-12T08:55:18.824Z,0.89
2023-02-12T08:57:50.824Z,1.16
2023-02-12T09:00:23.383Z,1.28
2023-02-12T09:02:55.681Z,1.60
2023-02-12T09:05:27.665Z,1.40
2023-02-12T09:07:59.796Z,1.57
2023-02-12T09:10:32.034Z,1.68
2023-02-12T09:13:04.019Z,1.68
2023-02-12T09:15:40.174Z,1.68
2023-02-12T09:18:14.270Z,1.63
2023-02-12T09:20:46.269Z,1.41
2023-02-12T09:23:18.413Z,1.27
2023-02-12T09:25:50.416Z,1.12
2023-02-12T09:28:22.769Z,1.33
2023-02-12T09:30:54.734Z,1.57
2023-02-12T09:33:26.769Z,1.20
2023-02-12T09:36:05.406Z,1.47
2023-02-12T09:38:37.749Z,1.69
2023-02-12T09:41:43.696Z,1.50
2023-02-12T09:44:37.808Z,1.95
2023-02-12T09:47:09.780Z,1.76
2023-02-12T09:49:57.259Z,1.72
2023-02-12T09:52:30.491Z,1.69
2023-02-12T09:55:03.001Z,1.62
2023-02-12T09:57:38.310Z,1.88
2023-02-12T10:00:16.013Z,2.05
2023-02-12T10:02:52.372Z,1.74
2023-02-12T10:05:29.425Z,1.82
2023-02-12T10:08:10.298Z,2.23
2023-02-12T10:11:19.119Z,2.33
2023-02-12T10:14:24.577Z,2.22
2023-02-12T10:17:18.261Z,2.48
2023-02-12T10:20:12.201Z,2.57
2023-02-12T10:22:56.207Z,2.53
2023-02-12T10:25:31.609Z,2.68
2023-02-12T10:28:12.884Z,2.71
2023-02-12T10:30:59.014Z,2.15
2023-02-12T10:33:44.873Z,2.76
2023-02-12T10:36:19.692Z,2.82
2023-02-12T10:38:58.608Z,2.85
2023-02-12T10:41:32.859Z,2.78
2023-02-12T10:44:04.836Z,2.78
2023-02-12T10:46:37.098Z,2.55
2023-02-12T10:49:13.893Z,2.66
2023-02-12T10:52:25.141Z,2.49
2023-02-12T10:54:57.184Z,2.74
2023-02-12T10:57:31.750Z,2.67
2023-02-12T11:00:29.296Z,3.03
2023-02-12T11:03:12.139Z,3.16
2023-02-12T11:05:45.107Z,2.95
2023-02-12T11:08:39.093Z,2.98
2023-02-12T11:11:27.473Z,2.74
2023-02-12T11:14:20.475Z,2.97
2023-02-12T11:16:57.941Z,2.92
2023-02-12T11:19:31.917Z,3.03
2023-02-12T11:22:19.102Z,3.15
2023-02-12T11:25:02.309Z,3.32
2023-02-12T11:27:34.716Z,3.34
2023-02-12T11:30:22.619Z,3.11
2023-02-12T11:32:54.578Z,3.16
2023-02-12T11:35:28.855Z,3.45
2023-02-12T11:38:02.876Z,3.27
2023-02-12T11:40:35.012Z,3.28
2023-02-12T11:43:09.912Z,3.25
2023-02-12T11:45:48.421Z,3.30
2023-02-12T11:48:34.241Z,3.36
2023-02-12T11:51:19.406Z,3.49
2023-02-12T11:53:54.945Z,3.29
2023-02-12T11:56:42.447Z,3.17
2023-02-12T11:59:36.935Z,3.26
2023-02-12T12:02:14.583Z,3.37
2023-02-12T12:04:52.345Z,3.16
2023-02-12T12:07:32.343Z,3.19
2023-02-12T12:10:16.349Z,3.01
2023-02-12T12:12:50.896Z,3.11
2023-02-12T12:15:52.531Z,3.45
2023-02-12T12:18:45.280Z,3.53
2023-02-12T12:21:36.976Z,3.61
2023-02-12T12:24:20.680Z,3.22
2023-02-12T12:27:59.782Z,3.49
2023-02-12T12:30:34.649Z,3.72
2023-02-12T12:33:29.828Z,3.76
2023-02-12T12:36:13.923Z,3.75
2023-02-12T12:39:14.581Z,3.59
2023-02-12T12:42:07.984Z,3.74
2023-02-12T12:44:58.249Z,3.87
2023-02-12T12:48:15.335Z,3.71
2023-02-12T12:51:05.432Z,3.65
2023-02-12T12:53:52.957Z,3.69
2023-02-12T12:56:49.710Z,3.78
2023-02-12T12:59:21.863Z,3.96
2023-02-12T13:02:19.672Z,4.00
2023-02-12T13:05:30.536Z,3.99
2023-02-12T13:08:46.976Z,3.92
2023-02-12T13:11:46.625Z,3.71
2023-02-12T13:14:29.144Z,3.76
2023-02-12T13:17:19.894Z,3.95
2023-02-12T13:20:20.353Z,4.22
2023-02-12T13:23:07.419Z,4.20
2023-02-12T13:25:51.848Z,4.23
2023-02-12T13:28:36.773Z,3.90
2023-02-12T13:31:32.065Z,3.65
2023-02-12T13:34:14.113Z,3.88
2023-02-12T13:36:46.967Z,3.51
2023-02-12T13:39:35.609Z,3.71
2023-02-12T13:42:07.402Z,3.59
2023-02-12T13:44:51.601Z,3.63
2023-02-12T13:47:57.193Z,3.48
2023-02-12T13:50:35.217Z,3.65
2023-02-12T13:53:16.288Z,3.52
2023-02-12T13:56:07.371Z,3.21
2023-02-12T13:58:40.236Z,3.37
2023-02-12T14:01:14.940Z,3.41
2023-02-12T14:03:47.574Z,3.54
2023-02-12T14:06:21.976Z,3.19
2023-02-12T14:09:09.558Z,3.35
2023-02-12T14:12:10.355Z,3.38
2023-02-12T14:14:50.742Z,3.17
2023-02-12T14:17:28.677Z,3.02
2023-02-12T14:20:28.717Z,3.05
2023-02-12T14:23:02.533Z,2.97
2023-02-12T14:25:40.438Z,2.87
2023-02-12T14:28:29.445Z,2.93
2023-02-12T14:31:20.238Z,3.05
2023-02-12T14:34:16.857Z,3.01
2023-02-12T14:37:09.290Z,2.82
2023-02-12T14:39:41.347Z,2.57
2023-02-12T14:42:13.219Z,2.92
2023-02-12T14:44:56.311Z,2.87
2023-02-12T14:47:30.952Z,2.59
2023-02-12T14:50:29.205Z,2.62
2023-02-12T14:53:13.211Z,2.49
2023-02-12T14:55:47.521Z,2.45
2023-02-12T14:58:24.814Z,1.99
2023-02-12T15:01:00.312Z,2.27
2023-02-12T15:03:43.460Z,2.36
2023-02-12T15:06:27.882Z,2.12
2023-02-12T15:09:07.810Z,2.09
2023-02-12T15:11:47.389Z,2.04
2023-02-12T15:14:23.736Z,1.96
2023-02-12T15:17:08.857Z,1.90
2023-02-12T15:20:00.207Z,1.79
2023-02-12T15:22:38.565Z,1.68
2023-02-12T15:25:17.848Z,1.64
2023-02-12T15:27:51.212Z,1.59
2023-02-12T15:30:27.079Z,1.14
2023-02-12T15:33:03.426Z,1.41
2023-02-12T15:35:39.539Z,1.61
2023-02-12T15:38:27.732Z,1.44
2023-02-12T15:41:01.732Z,1.16
2023-02-12T15:43:40.137Z,1.39
2023-02-12T15:46:17.514Z,1.37
2023-02-12T15:48:49.880Z,1.37
2023-02-12T15:51:35.701Z,1.31
2023-02-12T15:54:08.082Z,1.25
2023-02-12T15:56:42.009Z,1.27
2023-02-12T15:59:27.245Z,1.09
2023-02-12T16:02:03.691Z,0.92
2023-02-12T16:04:37.613Z,0.96
2023-02-12T16:07:12.984Z,0.83
2023-02-12T16:09:45.984Z,0.80
2023-02-12T16:12:21.965Z,0.81
2023-02-12T16:14:56.436Z,0.70
2023-02-12T16:17:35.312Z,0.75
2023-02-12T16:20:29.816Z,0.75
2023-02-12T16:23:06.662Z,0.71
2023-02-12T16:25:40.629Z,0.45
2023-02-12T16:28:22.538Z,0.55
2023-02-12T16:31:08.487Z,0.54
2023-02-12T16:33:40.347Z,0.50
2023-02-12T16:36:22.820Z,0.59
2023-02-12T16:39:06.401Z,0.45
2023-02-12T16:42:04.726Z,0.51
2023-02-12T16:44:36.625Z,0.36
2023-02-12T16:47:21.371Z,0.18
2023-02-12T16:50:02.099Z,0.12
2023-02-12T16:52:36.863Z,0.28
2023-02-12T16:55:17.854Z,0.13
2023-02-12T16:57:49.794Z,0.10
2023-02-12T17:00:22.860Z,0.04
2023-02-12T17:02:56.269Z,-0.09
2023-02-12T17:05:28.211Z,-0.04
2023-02-12T17:08:00.090Z,0.09
2023-02-12T17:10:31.980Z,0.09
2023-02-12T17:13:03.909Z,0.09
2023-02-12T17:15:43.070Z,0.04
2023-02-12T17:18:18.286Z,-0.13
2023-02-12T17:21:19.305Z,0.02
2023-02-12T17:23:51.385Z,-0.19
2023-02-12T17:26:24.655Z,-0.16
2023-02-12T17:29:05.568Z,-0.14
2023-02-12T17:31:37.993Z,-0.24
2023-02-12T17:34:10.178Z,-0.52
2023-02-12T17:36:42.491Z,-0.64
2023-02-12T17:39:15.713Z,-0.35
2023-02-12T17:41:47.827Z,-0.35
2023-02-12T17:44:19.793Z,-0.44
2023-02-12T17:46:52.225Z,-0.73
2023-02-12T17:49:24.201Z,-0.76
2023-02-12T17:51:56.096Z,-0.54
2023-02-12T17:54:28.363Z,-0.42
2023-02-12T17:57:00.269Z,-0.40
2023-02-12T17:59:32.712Z,-0.32
2023-02-12T18:02:04.846Z,-0.41
2023-02-12T18:04:36.915Z,-0.44
2023-02-12T18:07:09.578Z,-0.50
2023-02-12T18:09:41.715Z,-0.35
2023-02-12T18:12:13.694Z,-0.45
2023-02-12T18:14:45.798Z,-0.60
2023-02-12T18:17:17.657Z,-0.64
2023-02-12T18:19:50.069Z,-0.50
2023-02-12T18:22:22.454Z,-0.54
2023-02-12T18:24:56.009Z,-0.56
2023-02-12T18:27:28.269Z,-0.83
2023-02-12T18:30:00.220Z,-0.96
2023-02-12T18:32:32.209Z,-0.79
2023-02-12T18:35:05.663Z,-1.01
2023-02-12T18:37:37.720Z,-1.13
2023-02-12T18:40:09.960Z,-0.89
2023-02-12T18:42:42.201Z,-0.75
2023-02-12T18:45:14.226Z,-0.90
2023-02-12T18:47:46.361Z,-0.88
2023-02-12T18:50:18.370Z,-0.87
2023-02-12T18:52:50.299Z,-0.94
2023-02-12T18:55:22.301Z,-0.87
2023-02-12T18:57:55.061Z,-0.64
2023-02-12T19:00:27.142Z,-0.73
2023-02-12T19:02:59.170Z,-0.67
2023-02-12T19:05:31.661Z,-0.52
2023-02-12T19:08:03.887Z,-0.40
2023-02-12T19:10:39.329Z,-0.11
2023-02-12T19:13:11.350Z,-0.01
2023-02-12T19:15:43.464Z,-0.01
2023-02-12T19:18:16.844Z,-0.27
2023-02-12T19:20:48.779Z,0.07
2023-02-12T19:23:20.698Z,0.01
2023-02-12T19:25:52.644Z,0.03
2023-02-12T19:28:24.630Z,0.31
2023-02-12T19:30:57.013Z,0.13
2023-02-12T19:33:29.247Z,0.41
2023-02-12T19:36:01.212Z,0.40
2023-02-12T19:38:35.209Z,0.49
2023-02-12T19:41:10.586Z,0.55
2023-02-12T19:43:43.833Z,0.50
2023-02-12T19:46:18.804Z,0.58
2023-02-12T19:48:56.138Z,0.62
2023-02-12T19:51:31.940Z,0.70
2023-02-12T19:54:07.291Z,0.48
2023-02-12T19:56:39.977Z,0.53
2023-02-12T19:59:15.754Z,0.52
2023-02-12T20:01:48.773Z,0.72
2023-02-12T20:04:22.507Z,0.72
2023-02-12T20:06:54.922Z,0.78
2023-02-12T20:09:27.009Z,0.64
2023-02-12T20:12:00.021Z,0.66
2023-02-12T20:14:31.903Z,0.52
2023-02-12T20:17:03.849Z,0.81
2023-02-12T20:19:36.050Z,0.81
2023-02-12T20:22:08.229Z,0.82
2023-02-12T20:24:40.294Z,0.79
2023-02-12T20:27:13.241Z,0.77
2023-02-12T20:29:45.222Z,0.81
2023-02-12T20:32:17.388Z,0.90
2023-02-12T20:34:52.541Z,0.97
2023-02-12T20:37:24.550Z,0.96
2023-02-12T20:39:56.697Z,0.84
2023-02-12T20:42:28.641Z,0.84
2023-02-12T20:45:00.547Z,0.93
2023-02-12T20:47:33.781Z,0.98
2023-02-12T20:50:06.863Z,1.02
2023-02-12T20:52:38.966Z,1.08
2023-02-12T20:55:10.978Z,1.04
2023-02-12T20:57:42.990Z,1.10
2023-02-12T21:00:15.677Z,1.21
2023-02-12T21:02:47.561Z,1.10
2023-02-12T21:05:19.525Z,1.20
2023-02-12T21:07:51.596Z,1.20
2023-02-12T21:10:23.813Z,0.97
2023-02-12T21:12:55.752Z,1.11
2023-02-12T21:15:27.686Z,0.85
2023-02-12T21:17:59.617Z,0.74
2023-02-12T21:20:31.600Z,1.10
2023-02-12T21:23:03.597Z,0.82
2023-02-12T21:25:35.641Z,0.59
2023-02-12T21:28:07.645Z,0.96
2023-02-12T21:30:39.718Z,1.02
2023-02-12T21:33:11.703Z,1.22
2023-02-12T21:35:43.625Z,1.26
2023-02-12T21:38:15.552Z,1.21
2023-02-12T21:40:47.564Z,1.33
2023-02-12T21:43:20.560Z,1.34
2023-02-12T21:45:52.769Z,1.37
2023-02-12T21:48:24.849Z,1.33
2023-02-12T21:50:57.723Z,1.43
2023-02-12T21:53:29.941Z,1.42
2023-02-12T21:56:04.098Z,1.53
2023-02-12T21:58:35.956Z,1.36
2023-02-12T22:01:16.099Z,1.44
2023-02-12T22:03:48.054Z,1.55
2023-02-12T22:06:22.559Z,1.61
2023-02-12T22:08:56.140Z,1.59
2023-02-12T22:11:28.222Z,1.43
2023-02-12T22:14:00.396Z,1.45
2023-02-12T22:16:32.617Z,1.20
2023-02-12T22:19:05.935Z,1.24
2023-02-12T22:21:40.557Z,1.36
2023-02-12T22:24:15.618Z,1.62
2023-02-12T22:26:47.569Z,1.48
2023-02-12T22:29:20.213Z,1.42
2023-02-12T22:31:52.867Z,1.61
2023-02-12T22:34:24.868Z,1.63
2023-02-12T22:36:56.821Z,1.44
2023-02-12T22:39:31.425Z,1.57
2023-02-12T22:42:03.591Z,1.39
2023-02-12T22:44:36.341Z,1.58
2023-02-12T22:47:08.280Z,1.43
2023-02-12T22:49:40.256Z,1.44
2023-02-12T22:52:12.752Z,1.53
2023-02-12T22:54:45.103Z,1.28
2023-02-12T22:57:18.129Z,1.66
2023-02-12T22:59:50.137Z,1.41
2023-02-12T23:02:22.059Z,1.73
2023-02-12T23:04:53.951Z,1.76
2023-02-12T23:07:26.158Z,1.55
2023-02-12T23:09:58.052Z,1.62
2023-02-12T23:12:29.982Z,1.76
2023-02-12T23:15:01.872Z,1.84
2023-02-12T23:17:33.756Z,1.64
2023-02-12T23:20:06.017Z,1.80
2023-02-12T23:22:37.942Z,1.90
2023-02-12T23:25:10.080Z,1.95
2023-02-12T23:27:42.017Z,2.04
2023-02-12T23:30:14.605Z,2.16
2023-02-12T23:32:46.586Z,1.99
2023-02-12T23:35:18.540Z,2.22
2023-02-12T23:37:50.704Z,2.18
2023-02-12T23:40:22.723Z,2.15
2023-02-12T23:42:54.758Z,2.04
2023-02-12T23:45:28.052Z,2.14
2023-02-12T23:48:00.099Z,2.25
2023-02-12T23:50:32.328Z,2.24
2023-02-12T23:53:04.233Z,2.15
2023-02-12T23:55:37.614Z,2.38
2023-02-12T23:58:10.336Z,2.42
